sensor_id;sensor_type;location;lat;lon;timestamp;P1;durP1;ratioP1;P2;durP2;ratioP2
15218;SDS011;15623;53.986;11.676;2024-01-30T00:05:04;8.07;;;6.73;;
15218;SDS011;15623;53.986;11.676;2024-01-30T00:10:38;7.60;;;6.90;;
15218;SDS011;15623;53.986;11.676;2024-01-30T00:16:19;7.70;;;7.03;;
15218;SDS011;15623;53.986;11.676;2024-01-30T00:21:52;8.23;;;6.90;;
15218;SDS011;15623;53.986;11.676;2024-01-30T00:27:26;8.77;;;7.10;;
15218;SDS011;15623;53.986;11.676;2024-01-30T00:32:58;8.37;;;7.33;;
15218;SDS011;15623;53.986;11.676;2024-01-30T00:38:30;8.57;;;7.77;;
15218;SDS011;15623;53.986;11.676;2024-01-30T00:44:03;9.83;;;7.77;;
15218;SDS011;15623;53.986;11.676;2024-01-30T00:49:35;8.97;;;7.10;;
15218;SDS011;15623;53.986;11.676;2024-01-30T00:55:07;8.07;;;7.27;;
15218;SDS011;15623;53.986;11.676;2024-01-30T01:00:40;10.17;;;7.30;;
15218;SDS011;15623;53.986;11.676;2024-01-30T01:06:12;8.17;;;7.23;;
15218;SDS011;15623;53.986;11.676;2024-01-30T01:11:44;7.43;;;6.73;;
15218;SDS011;15623;53.986;11.676;2024-01-30T01:17:19;9.27;;;7.20;;
15218;SDS011;15623;53.986;11.676;2024-01-30T01:22:52;8.10;;;7.30;;
15218;SDS011;15623;53.986;11.676;2024-01-30T01:28:24;8.43;;;7.60;;
15218;SDS011;15623;53.986;11.676;2024-01-30T01:33:57;8.37;;;7.33;;
15218;SDS011;15623;53.986;11.676;2024-01-30T01:39:29;7.40;;;6.80;;
15218;SDS011;15623;53.986;11.676;2024-01-30T01:45:01;9.20;;;7.60;;
15218;SDS011;15623;53.986;11.676;2024-01-30T01:50:36;7.93;;;7.13;;
15218;SDS011;15623;53.986;11.676;2024-01-30T01:56:09;8.17;;;7.23;;
15218;SDS011;15623;53.986;11.676;2024-01-30T02:01:41;8.23;;;7.40;;
15218;SDS011;15623;53.986;11.676;2024-01-30T02:07:16;8.00;;;7.20;;
15218;SDS011;15623;53.986;11.676;2024-01-30T02:12:49;8.27;;;7.47;;
15218;SDS011;15623;53.986;11.676;2024-01-30T02:18:20;8.13;;;7.37;;
15218;SDS011;15623;53.986;11.676;2024-01-30T02:23:54;8.10;;;7.30;;
15218;SDS011;15623;53.986;11.676;2024-01-30T02:29:26;8.67;;;7.87;;
15218;SDS011;15623;53.986;11.676;2024-01-30T02:34:58;9.43;;;7.40;;
15218;SDS011;15623;53.986;11.676;2024-01-30T02:40:32;8.70;;;7.80;;
15218;SDS011;15623;53.986;11.676;2024-01-30T02:46:05;12.40;;;8.70;;
15218;SDS011;15623;53.986;11.676;2024-01-30T02:51:36;11.07;;;8.80;;
15218;SDS011;15623;53.986;11.676;2024-01-30T02:57:10;9.33;;;8.40;;
15218;SDS011;15623;53.986;11.676;2024-01-30T03:02:43;9.90;;;8.37;;
15218;SDS011;15623;53.986;11.676;2024-01-30T03:08:15;9.33;;;8.23;;
15218;SDS011;15623;53.986;11.676;2024-01-30T03:13:49;10.07;;;8.73;;
15218;SDS011;15623;53.986;11.676;2024-01-30T03:19:21;8.97;;;8.00;;
15218;SDS011;15623;53.986;11.676;2024-01-30T03:24:53;8.40;;;7.60;;
15218;SDS011;15623;53.986;11.676;2024-01-30T03:30:27;8.53;;;7.73;;
15218;SDS011;15623;53.986;11.676;2024-01-30T03:36:02;8.20;;;7.53;;
15218;SDS011;15623;53.986;11.676;2024-01-30T03:41:34;9.90;;;8.13;;
15218;SDS011;15623;53.986;11.676;2024-01-30T03:47:07;8.27;;;7.53;;
15218;SDS011;15623;53.986;11.676;2024-01-30T03:52:39;10.23;;;8.30;;
15218;SDS011;15623;53.986;11.676;2024-01-30T03:58:11;8.63;;;7.83;;
15218;SDS011;15623;53.986;11.676;2024-01-30T04:03:45;9.93;;;8.87;;
15218;SDS011;15623;53.986;11.676;2024-01-30T04:09:24;8.70;;;7.90;;
15218;SDS011;15623;53.986;11.676;2024-01-30T04:14:57;9.00;;;7.93;;
15218;SDS011;15623;53.986;11.676;2024-01-30T04:20:37;9.63;;;8.67;;
15218;SDS011;15623;53.986;11.676;2024-01-30T04:26:09;8.93;;;8.13;;
15218;SDS011;15623;53.986;11.676;2024-01-30T04:31:41;12.20;;;8.43;;
15218;SDS011;15623;53.986;11.676;2024-01-30T04:37:14;9.70;;;8.77;;
15218;SDS011;15623;53.986;11.676;2024-01-30T04:42:47;10.67;;;8.77;;
15218;SDS011;15623;53.986;11.676;2024-01-30T04:48:19;10.33;;;9.33;;
15218;SDS011;15623;53.986;11.676;2024-01-30T04:53:52;10.03;;;9.00;;
15218;SDS011;15623;53.986;11.676;2024-01-30T04:59:24;12.17;;;9.20;;
15218;SDS011;15623;53.986;11.676;2024-01-30T05:04:56;10.63;;;9.10;;
15218;SDS011;15623;53.986;11.676;2024-01-30T05:10:30;10.40;;;9.30;;
15218;SDS011;15623;53.986;11.676;2024-01-30T05:16:02;11.03;;;9.90;;
15218;SDS011;15623;53.986;11.676;2024-01-30T05:21:35;12.80;;;10.53;;
15218;SDS011;15623;53.986;11.676;2024-01-30T05:27:09;12.20;;;10.07;;
15218;SDS011;15623;53.986;11.676;2024-01-30T05:32:42;19.70;;;13.27;;
15218;SDS011;15623;53.986;11.676;2024-01-30T05:38:15;15.23;;;12.43;;
15218;SDS011;15623;53.986;11.676;2024-01-30T05:43:49;14.37;;;11.33;;
15218;SDS011;15623;53.986;11.676;2024-01-30T05:49:21;12.63;;;10.30;;
15218;SDS011;15623;53.986;11.676;2024-01-30T05:54:53;12.93;;;10.77;;
15218;SDS011;15623;53.986;11.676;2024-01-30T06:00:27;13.17;;;11.13;;
15218;SDS011;15623;53.986;11.676;2024-01-30T06:05:59;11.40;;;10.30;;
15218;SDS011;15623;53.986;11.676;2024-01-30T06:11:33;13.40;;;10.27;;
15218;SDS011;15623;53.986;11.676;2024-01-30T06:17:06;12.73;;;11.43;;
15218;SDS011;15623;53.986;11.676;2024-01-30T06:22:38;16.73;;;11.13;;
15218;SDS011;15623;53.986;11.676;2024-01-30T06:28:10;15.40;;;11.97;;
15218;SDS011;15623;53.986;11.676;2024-01-30T06:33:46;12.20;;;10.67;;
15218;SDS011;15623;53.986;11.676;2024-01-30T06:39:17;14.67;;;11.77;;
15218;SDS011;15623;53.986;11.676;2024-01-30T06:44:49;12.27;;;10.97;;
15218;SDS011;15623;53.986;11.676;2024-01-30T06:50:24;15.10;;;12.30;;
15218;SDS011;15623;53.986;11.676;2024-01-30T06:55:57;16.47;;;11.60;;
15218;SDS011;15623;53.986;11.676;2024-01-30T07:01:29;12.90;;;11.60;;
15218;SDS011;15623;53.986;11.676;2024-01-30T07:07:03;17.07;;;12.07;;
15218;SDS011;15623;53.986;11.676;2024-01-30T07:12:41;16.63;;;12.33;;
15218;SDS011;15623;53.986;11.676;2024-01-30T07:18:13;15.70;;;12.27;;
15218;SDS011;15623;53.986;11.676;2024-01-30T07:23:46;15.60;;;12.00;;
15218;SDS011;15623;53.986;11.676;2024-01-30T07:29:18;14.80;;;12.90;;
15218;SDS011;15623;53.986;11.676;2024-01-30T07:34:51;16.10;;;12.63;;
15218;SDS011;15623;53.986;11.676;2024-01-30T07:40:25;16.33;;;12.53;;
15218;SDS011;15623;53.986;11.676;2024-01-30T07:45:56;16.23;;;12.00;;
15218;SDS011;15623;53.986;11.676;2024-01-30T07:51:30;17.07;;;11.90;;
15218;SDS011;15623;53.986;11.676;2024-01-30T07:57:04;13.00;;;11.37;;
15218;SDS011;15623;53.986;11.676;2024-01-30T08:02:36;16.53;;;11.90;;
15218;SDS011;15623;53.986;11.676;2024-01-30T08:08:08;17.33;;;12.57;;
15218;SDS011;15623;53.986;11.676;2024-01-30T08:13:42;17.37;;;12.67;;
15218;SDS011;15623;53.986;11.676;2024-01-30T08:19:14;13.70;;;12.20;;
15218;SDS011;15623;53.986;11.676;2024-01-30T08:24:45;13.73;;;11.70;;
15218;SDS011;15623;53.986;11.676;2024-01-30T08:30:19;11.13;;;10.03;;
15218;SDS011;15623;53.986;11.676;2024-01-30T08:35:51;10.33;;;9.33;;
15218;SDS011;15623;53.986;11.676;2024-01-30T08:41:23;12.30;;;10.30;;
15218;SDS011;15623;53.986;11.676;2024-01-30T08:46:58;13.20;;;10.23;;
15218;SDS011;15623;53.986;11.676;2024-01-30T08:52:29;11.97;;;9.73;;
15218;SDS011;15623;53.986;11.676;2024-01-30T08:58:02;10.87;;;9.70;;
15218;SDS011;15623;53.986;11.676;2024-01-30T09:03:36;9.80;;;8.90;;
15218;SDS011;15623;53.986;11.676;2024-01-30T09:09:09;11.40;;;10.27;;
15218;SDS011;15623;53.986;11.676;2024-01-30T09:14:41;12.23;;;10.50;;
15218;SDS011;15623;53.986;11.676;2024-01-30T09:20:15;11.70;;;10.50;;
15218;SDS011;15623;53.986;11.676;2024-01-30T09:25:48;12.50;;;11.10;;
15218;SDS011;15623;53.986;11.676;2024-01-30T09:31:20;12.40;;;11.00;;
15218;SDS011;15623;53.986;11.676;2024-01-30T09:36:54;12.77;;;10.87;;
15218;SDS011;15623;53.986;11.676;2024-01-30T09:42:26;12.57;;;10.63;;
15218;SDS011;15623;53.986;11.676;2024-01-30T09:47:59;13.40;;;11.53;;
15218;SDS011;15623;53.986;11.676;2024-01-30T09:53:32;15.90;;;13.50;;
15218;SDS011;15623;53.986;11.676;2024-01-30T09:59:05;14.43;;;13.03;;
15218;SDS011;15623;53.986;11.676;2024-01-30T10:04:36;16.07;;;13.00;;
15218;SDS011;15623;53.986;11.676;2024-01-30T10:10:10;15.20;;;12.60;;
15218;SDS011;15623;53.986;11.676;2024-01-30T10:15:42;14.13;;;11.43;;
15218;SDS011;15623;53.986;11.676;2024-01-30T10:21:14;17.40;;;12.67;;
15218;SDS011;15623;53.986;11.676;2024-01-30T10:26:47;14.10;;;12.20;;
15218;SDS011;15623;53.986;11.676;2024-01-30T10:32:20;13.40;;;11.00;;
15218;SDS011;15623;53.986;11.676;2024-01-30T10:37:53;12.50;;;10.33;;
15218;SDS011;15623;53.986;11.676;2024-01-30T10:43:31;11.93;;;10.83;;
15218;SDS011;15623;53.986;11.676;2024-01-30T10:49:04;11.97;;;10.87;;
15218;SDS011;15623;53.986;11.676;2024-01-30T10:54:36;11.40;;;10.40;;
15218;SDS011;15623;53.986;11.676;2024-01-30T11:00:11;11.33;;;10.23;;
15218;SDS011;15623;53.986;11.676;2024-01-30T11:05:48;12.10;;;10.67;;
15218;SDS011;15623;53.986;11.676;2024-01-30T11:11:20;11.87;;;10.60;;
15218;SDS011;15623;53.986;11.676;2024-01-30T11:16:56;12.03;;;10.80;;
15218;SDS011;15623;53.986;11.676;2024-01-30T11:22:30;12.23;;;11.03;;
15218;SDS011;15623;53.986;11.676;2024-01-30T11:28:02;11.97;;;10.77;;
15218;SDS011;15623;53.986;11.676;2024-01-30T11:33:36;11.60;;;10.40;;
15218;SDS011;15623;53.986;11.676;2024-01-30T11:39:08;12.13;;;10.93;;
15218;SDS011;15623;53.986;11.676;2024-01-30T11:44:40;11.37;;;10.27;;
15218;SDS011;15623;53.986;11.676;2024-01-30T11:50:14;13.50;;;10.43;;
15218;SDS011;15623;53.986;11.676;2024-01-30T11:55:49;10.87;;;9.87;;
15218;SDS011;15623;53.986;11.676;2024-01-30T12:01:21;11.67;;;10.33;;
15218;SDS011;15623;53.986;11.676;2024-01-30T12:06:54;11.40;;;10.30;;
15218;SDS011;15623;53.986;11.676;2024-01-30T12:12:27;11.67;;;10.53;;
15218;SDS011;15623;53.986;11.676;2024-01-30T12:18:05;11.60;;;10.27;;
15218;SDS011;15623;53.986;11.676;2024-01-30T12:23:40;10.83;;;9.83;;
15218;SDS011;15623;53.986;11.676;2024-01-30T12:29:14;11.43;;;10.23;;
15218;SDS011;15623;53.986;11.676;2024-01-30T12:34:46;11.97;;;10.00;;
15218;SDS011;15623;53.986;11.676;2024-01-30T12:40:20;12.00;;;10.20;;
15218;SDS011;15623;53.986;11.676;2024-01-30T12:45:53;11.00;;;9.93;;
15218;SDS011;15623;53.986;11.676;2024-01-30T12:51:25;11.17;;;10.03;;
15218;SDS011;15623;53.986;11.676;2024-01-30T12:56:59;10.97;;;9.83;;
15218;SDS011;15623;53.986;11.676;2024-01-30T13:02:31;11.97;;;10.67;;
15218;SDS011;15623;53.986;11.676;2024-01-30T13:08:05;14.73;;;10.23;;
15218;SDS011;15623;53.986;11.676;2024-01-30T13:13:38;13.97;;;10.07;;
15218;SDS011;15623;53.986;11.676;2024-01-30T13:19:10;11.43;;;10.33;;
15218;SDS011;15623;53.986;11.676;2024-01-30T13:24:42;11.67;;;10.50;;
15218;SDS011;15623;53.986;11.676;2024-01-30T13:30:17;11.40;;;10.30;;
15218;SDS011;15623;53.986;11.676;2024-01-30T13:35:49;11.40;;;10.00;;
15218;SDS011;15623;53.986;11.676;2024-01-30T13:41:21;11.80;;;10.57;;
15218;SDS011;15623;53.986;11.676;2024-01-30T13:46:54;14.00;;;11.57;;
15218;SDS011;15623;53.986;11.676;2024-01-30T13:52:33;12.97;;;10.10;;
15218;SDS011;15623;53.986;11.676;2024-01-30T13:58:06;14.40;;;10.60;;
15218;SDS011;15623;53.986;11.676;2024-01-30T14:03:40;15.13;;;10.73;;
15218;SDS011;15623;53.986;11.676;2024-01-30T14:09:13;11.90;;;10.60;;
15218;SDS011;15623;53.986;11.676;2024-01-30T14:14:45;12.70;;;11.03;;
15218;SDS011;15623;53.986;11.676;2024-01-30T14:20:18;11.93;;;10.83;;
15218;SDS011;15623;53.986;11.676;2024-01-30T14:25:51;11.90;;;10.37;;
15218;SDS011;15623;53.986;11.676;2024-01-30T14:31:23;13.67;;;10.20;;
15218;SDS011;15623;53.986;11.676;2024-01-30T14:36:56;11.50;;;10.33;;
15218;SDS011;15623;53.986;11.676;2024-01-30T14:42:35;11.30;;;10.30;;
15218;SDS011;15623;53.986;11.676;2024-01-30T14:48:07;12.20;;;10.90;;
15218;SDS011;15623;53.986;11.676;2024-01-30T14:53:50;15.53;;;11.33;;
15218;SDS011;15623;53.986;11.676;2024-01-30T14:59:29;12.00;;;10.60;;
15218;SDS011;15623;53.986;11.676;2024-01-30T15:05:03;13.43;;;11.23;;
15218;SDS011;15623;53.986;11.676;2024-01-30T15:10:37;12.03;;;10.83;;
15218;SDS011;15623;53.986;11.676;2024-01-30T15:16:09;12.03;;;10.50;;
15218;SDS011;15623;53.986;11.676;2024-01-30T15:21:41;11.80;;;10.67;;
15218;SDS011;15623;53.986;11.676;2024-01-30T15:27:15;13.20;;;10.77;;
15218;SDS011;15623;53.986;11.676;2024-01-30T15:32:48;13.27;;;11.10;;
15218;SDS011;15623;53.986;11.676;2024-01-30T15:38:20;14.87;;;11.20;;
15218;SDS011;15623;53.986;11.676;2024-01-30T15:43:54;14.07;;;11.27;;
15218;SDS011;15623;53.986;11.676;2024-01-30T15:49:26;14.60;;;11.47;;
15218;SDS011;15623;53.986;11.676;2024-01-30T15:54:58;13.97;;;10.90;;
15218;SDS011;15623;53.986;11.676;2024-01-30T16:00:32;14.53;;;11.20;;
15218;SDS011;15623;53.986;11.676;2024-01-30T16:06:04;14.00;;;11.60;;
15218;SDS011;15623;53.986;11.676;2024-01-30T16:11:36;21.00;;;13.17;;
15218;SDS011;15623;53.986;11.676;2024-01-30T16:17:09;19.47;;;13.27;;
15218;SDS011;15623;53.986;11.676;2024-01-30T16:22:41;13.47;;;11.07;;
15218;SDS011;15623;53.986;11.676;2024-01-30T16:28:14;15.23;;;10.90;;
15218;SDS011;15623;53.986;11.676;2024-01-30T16:33:48;14.83;;;11.87;;
15218;SDS011;15623;53.986;11.676;2024-01-30T16:39:19;14.97;;;11.70;;
15218;SDS011;15623;53.986;11.676;2024-01-30T16:44:52;15.03;;;10.77;;
15218;SDS011;15623;53.986;11.676;2024-01-30T16:50:25;14.00;;;11.83;;
15218;SDS011;15623;53.986;11.676;2024-01-30T16:55:57;15.37;;;10.57;;
15218;SDS011;15623;53.986;11.676;2024-01-30T17:01:29;14.83;;;11.00;;
15218;SDS011;15623;53.986;11.676;2024-01-30T17:07:04;13.73;;;10.43;;
15218;SDS011;15623;53.986;11.676;2024-01-30T17:12:35;12.77;;;11.43;;
15218;SDS011;15623;53.986;11.676;2024-01-30T17:18:07;14.50;;;12.00;;
15218;SDS011;15623;53.986;11.676;2024-01-30T17:23:40;13.93;;;10.87;;
15218;SDS011;15623;53.986;11.676;2024-01-30T17:29:12;14.53;;;11.70;;
15218;SDS011;15623;53.986;11.676;2024-01-30T17:34:44;15.13;;;11.27;;
15218;SDS011;15623;53.986;11.676;2024-01-30T17:40:18;19.47;;;12.20;;
15218;SDS011;15623;53.986;11.676;2024-01-30T17:45:50;20.37;;;13.00;;
15218;SDS011;15623;53.986;11.676;2024-01-30T17:51:23;13.60;;;12.13;;
15218;SDS011;15623;53.986;11.676;2024-01-30T17:56:57;14.80;;;12.20;;
15218;SDS011;15623;53.986;11.676;2024-01-30T18:02:29;16.17;;;13.37;;
15218;SDS011;15623;53.986;11.676;2024-01-30T18:08:02;16.03;;;13.33;;
15218;SDS011;15623;53.986;11.676;2024-01-30T18:13:37;17.37;;;13.50;;
15218;SDS011;15623;53.986;11.676;2024-01-30T18:19:09;17.97;;;13.23;;
15218;SDS011;15623;53.986;11.676;2024-01-30T18:24:41;14.30;;;12.80;;
15218;SDS011;15623;53.986;11.676;2024-01-30T18:30:15;15.67;;;13.10;;
15218;SDS011;15623;53.986;11.676;2024-01-30T18:35:47;16.93;;;13.10;;
15218;SDS011;15623;53.986;11.676;2024-01-30T18:41:19;22.03;;;14.60;;
15218;SDS011;15623;53.986;11.676;2024-01-30T18:46:52;16.60;;;13.20;;
15218;SDS011;15623;53.986;11.676;2024-01-30T18:52:25;16.87;;;13.67;;
15218;SDS011;15623;53.986;11.676;2024-01-30T18:57:57;21.53;;;13.33;;
15218;SDS011;15623;53.986;11.676;2024-01-30T19:03:31;19.53;;;13.23;;
15218;SDS011;15623;53.986;11.676;2024-01-30T19:09:03;41.10;;;22.60;;
15218;SDS011;15623;53.986;11.676;2024-01-30T19:14:36;62.33;;;27.67;;
15218;SDS011;15623;53.986;11.676;2024-01-30T19:20:12;32.60;;;21.67;;
15218;SDS011;15623;53.986;11.676;2024-01-30T19:25:44;15.47;;;13.83;;
15218;SDS011;15623;53.986;11.676;2024-01-30T19:31:16;14.73;;;13.20;;
15218;SDS011;15623;53.986;11.676;2024-01-30T19:36:51;25.87;;;19.73;;
15218;SDS011;15623;53.986;11.676;2024-01-30T19:42:23;17.37;;;13.60;;
15218;SDS011;15623;53.986;11.676;2024-01-30T19:47:56;14.33;;;12.73;;
15218;SDS011;15623;53.986;11.676;2024-01-30T19:53:33;17.77;;;13.50;;
15218;SDS011;15623;53.986;11.676;2024-01-30T19:59:07;15.93;;;13.70;;
15218;SDS011;15623;53.986;11.676;2024-01-30T20:04:39;14.77;;;13.17;;
15218;SDS011;15623;53.986;11.676;2024-01-30T20:10:17;16.97;;;13.57;;
15218;SDS011;15623;53.986;11.676;2024-01-30T20:15:49;15.13;;;13.40;;
15218;SDS011;15623;53.986;11.676;2024-01-30T20:21:21;17.73;;;13.80;;
15218;SDS011;15623;53.986;11.676;2024-01-30T20:26:55;17.60;;;14.77;;
15218;SDS011;15623;53.986;11.676;2024-01-30T20:32:27;14.13;;;12.70;;
15218;SDS011;15623;53.986;11.676;2024-01-30T20:37:59;15.77;;;13.37;;
15218;SDS011;15623;53.986;11.676;2024-01-30T20:43:39;17.20;;;13.03;;
15218;SDS011;15623;53.986;11.676;2024-01-30T20:49:11;14.87;;;13.30;;
15218;SDS011;15623;53.986;11.676;2024-01-30T20:54:46;20.00;;;13.57;;
15218;SDS011;15623;53.986;11.676;2024-01-30T21:00:20;19.63;;;13.23;;
15218;SDS011;15623;53.986;11.676;2024-01-30T21:05:52;17.23;;;13.73;;
15218;SDS011;15623;53.986;11.676;2024-01-30T21:11:24;15.07;;;13.40;;
15218;SDS011;15623;53.986;11.676;2024-01-30T21:16:58;14.70;;;13.30;;
15218;SDS011;15623;53.986;11.676;2024-01-30T21:22:31;13.43;;;12.07;;
15218;SDS011;15623;53.986;11.676;2024-01-30T21:28:04;14.83;;;12.87;;
15218;SDS011;15623;53.986;11.676;2024-01-30T21:33:37;16.23;;;12.77;;
15218;SDS011;15623;53.986;11.676;2024-01-30T21:39:09;14.50;;;12.90;;
15218;SDS011;15623;53.986;11.676;2024-01-30T21:44:42;14.50;;;13.00;;
15218;SDS011;15623;53.986;11.676;2024-01-30T21:50:16;10.83;;;9.83;;
15218;SDS011;15623;53.986;11.676;2024-01-30T21:58:56;9.53;;;8.67;;
15218;SDS011;15623;53.986;11.676;2024-01-30T22:04:29;9.77;;;8.93;;
15218;SDS011;15623;53.986;11.676;2024-01-30T22:10:02;14.37;;;9.93;;
15218;SDS011;15623;53.986;11.676;2024-01-30T22:15:34;8.40;;;7.70;;
15218;SDS011;15623;53.986;11.676;2024-01-30T22:21:07;6.70;;;6.20;;
15218;SDS011;15623;53.986;11.676;2024-01-30T22:26:41;6.60;;;6.00;;
15218;SDS011;15623;53.986;11.676;2024-01-30T22:32:13;7.00;;;6.40;;
15218;SDS011;15623;53.986;11.676;2024-01-30T22:37:45;6.20;;;5.80;;
15218;SDS011;15623;53.986;11.676;2024-01-30T22:43:24;6.63;;;6.03;;
15218;SDS011;15623;53.986;11.676;2024-01-30T22:48:57;6.40;;;5.80;;
15218;SDS011;15623;53.986;11.676;2024-01-30T22:54:30;7.00;;;6.40;;
15218;SDS011;15623;53.986;11.676;2024-01-30T23:00:04;8.60;;;7.90;;
15218;SDS011;15623;53.986;11.676;2024-01-30T23:05:43;12.20;;;10.27;;
15218;SDS011;15623;53.986;11.676;2024-01-30T23:11:15;12.63;;;11.37;;
15218;SDS011;15623;53.986;11.676;2024-01-30T23:16:59;8.77;;;8.10;;
15218;SDS011;15623;53.986;11.676;2024-01-30T23:22:32;5.30;;;4.90;;
15218;SDS011;15623;53.986;11.676;2024-01-30T23:28:12;4.00;;;3.70;;
15218;SDS011;15623;53.986;11.676;2024-01-30T23:34:01;3.60;;;3.40;;
15218;SDS011;15623;53.986;11.676;2024-01-30T23:39:52;3.40;;;3.10;;
15218;SDS011;15623;53.986;11.676;2024-01-30T23:42:21;3.10;;;2.90;;
15218;SDS011;15623;53.986;11.676;2024-01-30T23:47:55;2.70;;;2.50;;
15218;SDS011;15623;53.986;11.676;2024-01-30T23:53:29;2.23;;;2.10;;
15218;SDS011;15623;53.986;11.676;2024-01-30T23:59:00;2.50;;;1.90;;
